Burr Oak, KS

1:21 AM CDT on May 26, 2015 (GMT -0500)
North Superior | | Change Station
CLOSE
Current Station
Personal Weather Station
Location: Superior, NE
Elevation: 1617 ft
Nearby Weather Stations

Elev 1617 ft 40.03 °N, 98.07 °W | Updated 1 second ago

Clear
Clear
62.4 °F
Feels Like 62.4 °F
N
5.0
Wind Variable Wind from SSW
Gusts 11.0 mph

Today
High -- | Low -- °F
--% Chance of Precip.
Yesterday
High -- | Low -- °F
Precip. -- in
6:10 AM 8:51 PM
First Quarter, 55% visible
Pressure 29.79 in
Visibility 10.0 miles
Clouds Clear
Dew Point 58 °F
Humidity 87%
Rainfall 0.00 in
Snow Depth Not available.
UV 0 out of 12
Pollen 7.60 out of 12
Air Quality Not available.
Flu Activity No Activity
METAR KHJH 260555Z AUTO 13005KT 10SM CLR 16/13 A2979 RMK AO2 T01560125 10252 20156 402650142

More Conditions Fewer Conditions

Pressure 29.79 in
Visibility 10.0 miles
Clouds Clear
Dew Point 58 °F
Humidity 87%
Rainfall 0.00 in
Snow Depth Not available.
UV 0 out of 12
Pollen 7.60 out of 12
Air Quality Not available.
Flu Activity No Activity
METAR KHJH 260555Z AUTO 13005KT 10SM CLR 16/13 A2979 RMK AO2 T01560125 10252 20156 402650142

More Conditions Fewer Conditions

10-Day Weather Forecast

Almanac

Astronomy

May. 26, 2015 Rise Set
Actual Time
Civil Twilight
Nautical Twilight
Astronomical Twilight
Moon
Length of Visible Light
Length of Day
Tomorrow will be .
, % of the Moon is Illuminated

Today's Extremes

State Highs State Lows

Community

WunderPhotos

Upload Photos

1,824,294 photos uploaded!

WunderBlogs® & News

Nearby

Air Quality

  Air Quality AQ Index Pollutant
Not available.

Snow Depth

Station Depth Elevation

Earthquake Activity

City Distance Mag. Time & Date
Minimum magnitude displayed is 2.5.

Coastal Water Temperatures

Place Temperature

Stations

Nearby Weather Stations

Station Location Temp. Windchill Dew Point Humidity Wind Precip. Elev Updated Type